sensor_id;sensor_type;location;lat;lon;timestamp;P1;durP1;ratioP1;P2;durP2;ratioP2
82399;SDS011;72039;48.812;8.198;2024-03-23T00:54:15;7.40;;;4.35;;
82399;SDS011;72039;48.812;8.198;2024-03-23T00:56:40;4.78;;;3.80;;
82399;SDS011;72039;48.812;8.198;2024-03-23T00:59:06;3.95;;;3.55;;
82399;SDS011;72039;48.812;8.198;2024-03-23T01:01:33;5.68;;;3.83;;
82399;SDS011;72039;48.812;8.198;2024-03-23T01:03:59;6.72;;;3.20;;
82399;SDS011;72039;48.812;8.198;2024-03-23T01:06:24;4.55;;;2.60;;
82399;SDS011;72039;48.812;8.198;2024-03-23T01:08:50;6.03;;;2.88;;
82399;SDS011;72039;48.812;8.198;2024-03-23T01:11:15;4.82;;;3.05;;
82399;SDS011;72039;48.812;8.198;2024-03-23T01:13:41;4.57;;;2.80;;
82399;SDS011;72039;48.812;8.198;2024-03-23T01:16:08;8.80;;;3.25;;
82399;SDS011;72039;48.812;8.198;2024-03-23T01:18:34;3.85;;;2.85;;
82399;SDS011;72039;48.812;8.198;2024-03-23T01:20:59;5.18;;;3.08;;
82399;SDS011;72039;48.812;8.198;2024-03-23T01:23:30;8.43;;;2.95;;
82399;SDS011;72039;48.812;8.198;2024-03-23T01:25:56;4.63;;;3.40;;
82399;SDS011;72039;48.812;8.198;2024-03-23T01:28:21;14.90;;;3.25;;
82399;SDS011;72039;48.812;8.198;2024-03-23T01:30:47;5.88;;;3.00;;
82399;SDS011;72039;48.812;8.198;2024-03-23T01:33:13;5.85;;;3.00;;
82399;SDS011;72039;48.812;8.198;2024-03-23T01:35:39;3.90;;;2.60;;
82399;SDS011;72039;48.812;8.198;2024-03-23T01:38:04;6.05;;;3.15;;
82399;SDS011;72039;48.812;8.198;2024-03-23T01:40:30;5.90;;;2.90;;
82399;SDS011;72039;48.812;8.198;2024-03-23T01:43:05;6.50;;;2.50;;
82399;SDS011;72039;48.812;8.198;2024-03-23T01:45:35;7.80;;;3.03;;
82399;SDS011;72039;48.812;8.198;2024-03-23T01:48:01;6.20;;;2.97;;
82399;SDS011;72039;48.812;8.198;2024-03-23T01:50:28;3.88;;;2.80;;
82399;SDS011;72039;48.812;8.198;2024-03-23T01:52:58;3.97;;;2.75;;
82399;SDS011;72039;48.812;8.198;2024-03-23T01:55:23;5.97;;;2.80;;
82399;SDS011;72039;48.812;8.198;2024-03-23T01:57:51;4.78;;;2.70;;
82399;SDS011;72039;48.812;8.198;2024-03-23T02:00:17;5.28;;;2.80;;
82399;SDS011;72039;48.812;8.198;2024-03-23T02:02:45;4.88;;;2.90;;
82399;SDS011;72039;48.812;8.198;2024-03-23T02:05:11;5.30;;;2.88;;
82399;SDS011;72039;48.812;8.198;2024-03-23T02:07:37;5.00;;;2.90;;
82399;SDS011;72039;48.812;8.198;2024-03-23T02:10:05;5.88;;;2.97;;
82399;SDS011;72039;48.812;8.198;2024-03-23T02:12:37;3.70;;;2.67;;
82399;SDS011;72039;48.812;8.198;2024-03-23T02:15:05;4.38;;;3.00;;
82399;SDS011;72039;48.812;8.198;2024-03-23T02:17:32;4.50;;;2.95;;
82399;SDS011;72039;48.812;8.198;2024-03-23T02:19:59;4.68;;;2.90;;
82399;SDS011;72039;48.812;8.198;2024-03-23T02:22:36;5.80;;;2.97;;
82399;SDS011;72039;48.812;8.198;2024-03-23T02:25:03;4.70;;;3.13;;
82399;SDS011;72039;48.812;8.198;2024-03-23T02:27:29;5.63;;;2.53;;
82399;SDS011;72039;48.812;8.198;2024-03-23T02:29:55;4.18;;;2.80;;
82399;SDS011;72039;48.812;8.198;2024-03-23T02:32:20;6.43;;;3.00;;
82399;SDS011;72039;48.812;8.198;2024-03-23T02:34:47;7.28;;;4.15;;
82399;SDS011;72039;48.812;8.198;2024-03-23T02:37:12;4.43;;;3.10;;
82399;SDS011;72039;48.812;8.198;2024-03-23T02:39:38;5.30;;;2.78;;
82399;SDS011;72039;48.812;8.198;2024-03-23T02:42:03;4.97;;;2.90;;
82399;SDS011;72039;48.812;8.198;2024-03-23T02:44:32;5.47;;;3.10;;
82399;SDS011;72039;48.812;8.198;2024-03-23T02:46:58;5.07;;;2.90;;
82399;SDS011;72039;48.812;8.198;2024-03-23T02:49:23;5.45;;;2.95;;
82399;SDS011;72039;48.812;8.198;2024-03-23T02:51:48;4.18;;;2.75;;
82399;SDS011;72039;48.812;8.198;2024-03-23T02:54:14;5.90;;;3.05;;
82399;SDS011;72039;48.812;8.198;2024-03-23T02:56:39;4.85;;;3.17;;
82399;SDS011;72039;48.812;8.198;2024-03-23T02:59:05;5.18;;;3.22;;
82399;SDS011;72039;48.812;8.198;2024-03-23T03:01:30;3.65;;;2.80;;
82399;SDS011;72039;48.812;8.198;2024-03-23T03:03:56;6.00;;;2.80;;
82399;SDS011;72039;48.812;8.198;2024-03-23T03:06:25;5.18;;;3.13;;
82399;SDS011;72039;48.812;8.198;2024-03-23T03:08:50;4.13;;;2.88;;
82399;SDS011;72039;48.812;8.198;2024-03-23T03:11:16;7.18;;;2.95;;
82399;SDS011;72039;48.812;8.198;2024-03-23T03:13:41;3.78;;;2.92;;
82399;SDS011;72039;48.812;8.198;2024-03-23T03:16:10;5.97;;;3.22;;
82399;SDS011;72039;48.812;8.198;2024-03-23T03:18:36;3.28;;;2.58;;
82399;SDS011;72039;48.812;8.198;2024-03-23T03:21:01;4.32;;;3.00;;
82399;SDS011;72039;48.812;8.198;2024-03-23T03:23:27;4.13;;;2.90;;
82399;SDS011;72039;48.812;8.198;2024-03-23T03:25:52;9.93;;;3.25;;
82399;SDS011;72039;48.812;8.198;2024-03-23T03:28:18;6.57;;;3.65;;
82399;SDS011;72039;48.812;8.198;2024-03-23T03:30:43;8.02;;;3.53;;
82399;SDS011;72039;48.812;8.198;2024-03-23T03:33:11;6.50;;;3.85;;
82399;SDS011;72039;48.812;8.198;2024-03-23T03:35:36;10.05;;;5.93;;
82399;SDS011;72039;48.812;8.198;2024-03-23T03:38:04;10.75;;;5.80;;
82399;SDS011;72039;48.812;8.198;2024-03-23T03:40:34;9.77;;;6.60;;
82399;SDS011;72039;48.812;8.198;2024-03-23T03:43:00;13.65;;;7.55;;
82399;SDS011;72039;48.812;8.198;2024-03-23T03:45:30;14.85;;;8.55;;
82399;SDS011;72039;48.812;8.198;2024-03-23T03:47:57;12.23;;;8.18;;
82399;SDS011;72039;48.812;8.198;2024-03-23T03:50:24;14.15;;;8.43;;
82399;SDS011;72039;48.812;8.198;2024-03-23T03:52:51;16.25;;;9.07;;
82399;SDS011;72039;48.812;8.198;2024-03-23T03:55:20;18.98;;;9.93;;
82399;SDS011;72039;48.812;8.198;2024-03-23T03:57:48;16.48;;;10.02;;
82399;SDS011;72039;48.812;8.198;2024-03-23T04:00:13;18.27;;;9.93;;
82399;SDS011;72039;48.812;8.198;2024-03-23T04:02:39;15.93;;;10.00;;
82399;SDS011;72039;48.812;8.198;2024-03-23T04:05:05;17.83;;;10.23;;
82399;SDS011;72039;48.812;8.198;2024-03-23T04:07:33;14.38;;;9.52;;
82399;SDS011;72039;48.812;8.198;2024-03-23T04:09:58;16.95;;;9.95;;
82399;SDS011;72039;48.812;8.198;2024-03-23T04:12:26;15.52;;;9.77;;
82399;SDS011;72039;48.812;8.198;2024-03-23T04:14:52;15.55;;;9.55;;
82399;SDS011;72039;48.812;8.198;2024-03-23T04:17:19;15.65;;;9.57;;
82399;SDS011;72039;48.812;8.198;2024-03-23T04:19:45;15.00;;;9.10;;
82399;SDS011;72039;48.812;8.198;2024-03-23T04:22:10;18.23;;;8.68;;
82399;SDS011;72039;48.812;8.198;2024-03-23T04:24:36;16.08;;;9.55;;
82399;SDS011;72039;48.812;8.198;2024-03-23T04:27:09;14.15;;;7.97;;
82399;SDS011;72039;48.812;8.198;2024-03-23T04:32:02;14.02;;;8.80;;
82399;SDS011;72039;48.812;8.198;2024-03-23T04:34:28;14.77;;;8.05;;
82399;SDS011;72039;48.812;8.198;2024-03-23T04:36:54;13.55;;;8.13;;
82399;SDS011;72039;48.812;8.198;2024-03-23T04:39:20;12.20;;;7.25;;
82399;SDS011;72039;48.812;8.198;2024-03-23T04:41:55;11.43;;;8.10;;
82399;SDS011;72039;48.812;8.198;2024-03-23T04:44:23;13.52;;;7.72;;
82399;SDS011;72039;48.812;8.198;2024-03-23T04:46:48;11.48;;;7.07;;
82399;SDS011;72039;48.812;8.198;2024-03-23T04:49:15;10.80;;;7.32;;
82399;SDS011;72039;48.812;8.198;2024-03-23T04:51:43;11.40;;;7.60;;
82399;SDS011;72039;48.812;8.198;2024-03-23T04:54:12;12.23;;;8.13;;
82399;SDS011;72039;48.812;8.198;2024-03-23T04:56:38;8.48;;;5.97;;
82399;SDS011;72039;48.812;8.198;2024-03-23T04:59:03;10.27;;;6.13;;
82399;SDS011;72039;48.812;8.198;2024-03-23T05:01:30;8.48;;;5.28;;
82399;SDS011;72039;48.812;8.198;2024-03-23T05:03:57;8.38;;;5.68;;
82399;SDS011;72039;48.812;8.198;2024-03-23T05:06:23;8.32;;;5.38;;
82399;SDS011;72039;48.812;8.198;2024-03-23T05:08:48;3.45;;;1.60;;
82399;SDS011;72039;48.812;8.198;2024-03-23T05:11:15;1.85;;;1.17;;
82399;SDS011;72039;48.812;8.198;2024-03-23T05:13:43;1.10;;;0.95;;
82399;SDS011;72039;48.812;8.198;2024-03-23T05:16:14;0.85;;;0.60;;
82399;SDS011;72039;48.812;8.198;2024-03-23T05:18:39;0.55;;;0.55;;
82399;SDS011;72039;48.812;8.198;2024-03-23T05:21:05;1.00;;;0.80;;
82399;SDS011;72039;48.812;8.198;2024-03-23T05:23:30;0.93;;;0.68;;
82399;SDS011;72039;48.812;8.198;2024-03-23T05:25:55;0.75;;;0.60;;
82399;SDS011;72039;48.812;8.198;2024-03-23T05:28:28;2.13;;;0.47;;
82399;SDS011;72039;48.812;8.198;2024-03-23T05:30:57;0.50;;;0.43;;
82399;SDS011;72039;48.812;8.198;2024-03-23T05:33:23;0.35;;;0.35;;
82399;SDS011;72039;48.812;8.198;2024-03-23T05:35:58;0.80;;;0.30;;
82399;SDS011;72039;48.812;8.198;2024-03-23T05:38:26;0.30;;;0.30;;
82399;SDS011;72039;48.812;8.198;2024-03-23T05:40:57;1.15;;;0.30;;
82399;SDS011;72039;48.812;8.198;2024-03-23T05:43:23;0.90;;;0.40;;
82399;SDS011;72039;48.812;8.198;2024-03-23T05:48:22;1.00;;;0.60;;
82399;SDS011;72039;48.812;8.198;2024-03-23T05:50:48;0.60;;;0.60;;
82399;SDS011;72039;48.812;8.198;2024-03-23T05:53:16;0.65;;;0.65;;
82399;SDS011;72039;48.812;8.198;2024-03-23T05:58:38;0.50;;;0.50;;
82399;SDS011;72039;48.812;8.198;2024-03-23T06:01:03;0.75;;;0.57;;
82399;SDS011;72039;48.812;8.198;2024-03-23T06:06:51;1.65;;;0.70;;
82399;SDS011;72039;48.812;8.198;2024-03-23T06:12:46;0.60;;;0.60;;
82399;SDS011;72039;48.812;8.198;2024-03-23T06:18:33;0.63;;;0.60;;
82399;SDS011;72039;48.812;8.198;2024-03-23T06:24:22;0.50;;;0.50;;
82399;SDS011;72039;48.812;8.198;2024-03-23T06:30:12;0.50;;;0.40;;
82399;SDS011;72039;48.812;8.198;2024-03-23T06:36:03;0.60;;;0.60;;
82399;SDS011;72039;48.812;8.198;2024-03-23T06:51:24;0.60;;;0.60;;
82399;SDS011;72039;48.812;8.198;2024-03-23T07:10:27;0.30;;;0.30;;
82399;SDS011;72039;48.812;8.198;2024-03-23T07:43:24;4.82;;;1.60;;
82399;SDS011;72039;48.812;8.198;2024-03-23T08:09:01;6.88;;;3.13;;
82399;SDS011;72039;48.812;8.198;2024-03-23T08:15:45;5.75;;;3.00;;
82399;SDS011;72039;48.812;8.198;2024-03-23T08:29:10;6.55;;;2.90;;
82399;SDS011;72039;48.812;8.198;2024-03-23T08:38:21;4.72;;;2.70;;
82399;SDS011;72039;48.812;8.198;2024-03-23T08:44:09;6.35;;;2.53;;
82399;SDS011;72039;48.812;8.198;2024-03-23T08:49:58;7.40;;;3.05;;
82399;SDS011;72039;48.812;8.198;2024-03-23T08:55:52;5.85;;;2.72;;
82399;SDS011;72039;48.812;8.198;2024-03-23T09:01:42;6.13;;;3.63;;
82399;SDS011;72039;48.812;8.198;2024-03-23T09:07:30;4.00;;;2.60;;
82399;SDS011;72039;48.812;8.198;2024-03-23T09:13:18;13.50;;;3.70;;
82399;SDS011;72039;48.812;8.198;2024-03-23T09:19:06;7.80;;;3.17;;
82399;SDS011;72039;48.812;8.198;2024-03-23T09:24:56;6.45;;;3.30;;
82399;SDS011;72039;48.812;8.198;2024-03-23T09:30:46;8.93;;;3.30;;
82399;SDS011;72039;48.812;8.198;2024-03-23T09:46:26;14.88;;;5.68;;
82399;SDS011;72039;48.812;8.198;2024-03-23T09:52:15;7.72;;;4.05;;
82399;SDS011;72039;48.812;8.198;2024-03-23T09:58:05;9.10;;;3.72;;
82399;SDS011;72039;48.812;8.198;2024-03-23T10:03:52;7.05;;;2.83;;
82399;SDS011;72039;48.812;8.198;2024-03-23T10:09:39;5.15;;;2.47;;
82399;SDS011;72039;48.812;8.198;2024-03-23T10:15:32;6.65;;;2.50;;
82399;SDS011;72039;48.812;8.198;2024-03-23T10:21:21;5.65;;;2.85;;
82399;SDS011;72039;48.812;8.198;2024-03-23T10:27:08;4.95;;;2.47;;
82399;SDS011;72039;48.812;8.198;2024-03-23T10:33:08;6.00;;;3.03;;
82399;SDS011;72039;48.812;8.198;2024-03-23T10:48:56;6.43;;;3.10;;
82399;SDS011;72039;48.812;8.198;2024-03-23T11:14:45;10.32;;;2.58;;
82399;SDS011;72039;48.812;8.198;2024-03-23T11:20:38;7.35;;;2.45;;
82399;SDS011;72039;48.812;8.198;2024-03-23T11:26:25;10.57;;;2.80;;
82399;SDS011;72039;48.812;8.198;2024-03-23T11:32:16;4.28;;;2.10;;
82399;SDS011;72039;48.812;8.198;2024-03-23T11:38:07;7.82;;;2.90;;
82399;SDS011;72039;48.812;8.198;2024-03-23T11:40:58;10.35;;;2.42;;
82399;SDS011;72039;48.812;8.198;2024-03-23T11:43:28;5.10;;;2.22;;
82399;SDS011;72039;48.812;8.198;2024-03-23T11:45:54;6.50;;;2.50;;
82399;SDS011;72039;48.812;8.198;2024-03-23T11:48:21;6.72;;;2.90;;
82399;SDS011;72039;48.812;8.198;2024-03-23T11:50:51;7.57;;;2.70;;
82399;SDS011;72039;48.812;8.198;2024-03-23T11:53:22;9.00;;;2.78;;
82399;SDS011;72039;48.812;8.198;2024-03-23T11:55:55;8.32;;;3.00;;
82399;SDS011;72039;48.812;8.198;2024-03-23T11:58:29;10.10;;;2.83;;
82399;SDS011;72039;48.812;8.198;2024-03-23T12:00:56;10.18;;;3.22;;
82399;SDS011;72039;48.812;8.198;2024-03-23T12:03:25;7.50;;;2.63;;
82399;SDS011;72039;48.812;8.198;2024-03-23T12:06:00;5.35;;;2.53;;
82399;SDS011;72039;48.812;8.198;2024-03-23T12:13:32;6.13;;;2.22;;
82399;SDS011;72039;48.812;8.198;2024-03-23T12:16:11;5.97;;;2.00;;
82399;SDS011;72039;48.812;8.198;2024-03-23T12:18:51;6.90;;;1.98;;
82399;SDS011;72039;48.812;8.198;2024-03-23T12:21:17;7.63;;;1.85;;
82399;SDS011;72039;48.812;8.198;2024-03-23T12:23:43;8.13;;;2.63;;
82399;SDS011;72039;48.812;8.198;2024-03-23T12:26:13;7.35;;;2.45;;
82399;SDS011;72039;48.812;8.198;2024-03-23T12:28:42;5.53;;;1.85;;
82399;SDS011;72039;48.812;8.198;2024-03-23T12:31:08;3.65;;;2.13;;
82399;SDS011;72039;48.812;8.198;2024-03-23T12:33:33;7.28;;;1.90;;
82399;SDS011;72039;48.812;8.198;2024-03-23T12:35:59;8.75;;;2.13;;
82399;SDS011;72039;48.812;8.198;2024-03-23T12:38:24;5.13;;;1.60;;
82399;SDS011;72039;48.812;8.198;2024-03-23T12:40:50;3.97;;;1.77;;
82399;SDS011;72039;48.812;8.198;2024-03-23T12:43:16;5.65;;;1.38;;
82399;SDS011;72039;48.812;8.198;2024-03-23T12:45:50;4.25;;;1.60;;
82399;SDS011;72039;48.812;8.198;2024-03-23T12:48:16;6.13;;;1.80;;
82399;SDS011;72039;48.812;8.198;2024-03-23T12:50:42;6.90;;;2.05;;
82399;SDS011;72039;48.812;8.198;2024-03-23T12:53:08;7.07;;;2.03;;
82399;SDS011;72039;48.812;8.198;2024-03-23T12:55:39;11.52;;;2.50;;
82399;SDS011;72039;48.812;8.198;2024-03-23T12:58:05;6.00;;;2.05;;
82399;SDS011;72039;48.812;8.198;2024-03-23T13:00:31;6.57;;;1.80;;
82399;SDS011;72039;48.812;8.198;2024-03-23T13:02:57;7.32;;;2.15;;
82399;SDS011;72039;48.812;8.198;2024-03-23T13:05:24;6.88;;;1.63;;
82399;SDS011;72039;48.812;8.198;2024-03-23T13:07:49;7.10;;;2.45;;
82399;SDS011;72039;48.812;8.198;2024-03-23T13:10:15;5.32;;;1.13;;
82399;SDS011;72039;48.812;8.198;2024-03-23T13:12:41;5.10;;;1.23;;
82399;SDS011;72039;48.812;8.198;2024-03-23T13:15:07;4.80;;;1.20;;
82399;SDS011;72039;48.812;8.198;2024-03-23T13:17:33;4.90;;;1.00;;
82399;SDS011;72039;48.812;8.198;2024-03-23T13:20:00;5.15;;;1.20;;
82399;SDS011;72039;48.812;8.198;2024-03-23T13:22:26;2.15;;;0.70;;
82399;SDS011;72039;48.812;8.198;2024-03-23T13:24:53;1.42;;;0.60;;
82399;SDS011;72039;48.812;8.198;2024-03-23T13:27:19;2.05;;;0.57;;
82399;SDS011;72039;48.812;8.198;2024-03-23T13:29:44;1.67;;;0.70;;
82399;SDS011;72039;48.812;8.198;2024-03-23T13:32:11;0.80;;;0.50;;
82399;SDS011;72039;48.812;8.198;2024-03-23T13:34:42;2.08;;;0.70;;
82399;SDS011;72039;48.812;8.198;2024-03-23T13:56:24;2.10;;;0.63;;
82399;SDS011;72039;48.812;8.198;2024-03-23T13:58:51;3.05;;;0.77;;
82399;SDS011;72039;48.812;8.198;2024-03-23T14:01:17;2.42;;;0.80;;
82399;SDS011;72039;48.812;8.198;2024-03-23T14:03:43;2.85;;;1.00;;
82399;SDS011;72039;48.812;8.198;2024-03-23T14:06:11;1.83;;;0.90;;
82399;SDS011;72039;48.812;8.198;2024-03-23T14:08:37;1.02;;;0.68;;
82399;SDS011;72039;48.812;8.198;2024-03-23T14:11:06;5.13;;;0.85;;
82399;SDS011;72039;48.812;8.198;2024-03-23T14:13:32;8.32;;;0.80;;
82399;SDS011;72039;48.812;8.198;2024-03-23T14:16:05;2.60;;;0.80;;
82399;SDS011;72039;48.812;8.198;2024-03-23T14:20:59;3.28;;;1.15;;
82399;SDS011;72039;48.812;8.198;2024-03-23T14:23:26;1.63;;;0.85;;
82399;SDS011;72039;48.812;8.198;2024-03-23T14:25:54;3.95;;;0.85;;
82399;SDS011;72039;48.812;8.198;2024-03-23T14:28:21;2.30;;;0.80;;
82399;SDS011;72039;48.812;8.198;2024-03-23T14:30:48;2.90;;;1.13;;
82399;SDS011;72039;48.812;8.198;2024-03-23T14:33:14;2.22;;;0.80;;
82399;SDS011;72039;48.812;8.198;2024-03-23T14:35:40;1.00;;;0.60;;
82399;SDS011;72039;48.812;8.198;2024-03-23T14:38:06;3.05;;;0.80;;
82399;SDS011;72039;48.812;8.198;2024-03-23T14:40:31;3.25;;;0.95;;
82399;SDS011;72039;48.812;8.198;2024-03-23T14:42:57;2.72;;;0.88;;
82399;SDS011;72039;48.812;8.198;2024-03-23T14:45:22;3.40;;;1.15;;
82399;SDS011;72039;48.812;8.198;2024-03-23T14:47:51;7.13;;;0.73;;
82399;SDS011;72039;48.812;8.198;2024-03-23T14:50:17;2.83;;;0.80;;
82399;SDS011;72039;48.812;8.198;2024-03-23T14:52:46;7.53;;;3.05;;
82399;SDS011;72039;48.812;8.198;2024-03-23T14:55:12;5.32;;;3.00;;
82399;SDS011;72039;48.812;8.198;2024-03-23T14:57:39;4.85;;;2.05;;
82399;SDS011;72039;48.812;8.198;2024-03-23T15:00:07;1.23;;;0.93;;
82399;SDS011;72039;48.812;8.198;2024-03-23T15:02:35;6.93;;;3.92;;
82399;SDS011;72039;48.812;8.198;2024-03-23T15:05:01;5.53;;;2.83;;
82399;SDS011;72039;48.812;8.198;2024-03-23T15:07:28;5.32;;;2.88;;
82399;SDS011;72039;48.812;8.198;2024-03-23T15:10:01;5.40;;;3.65;;
82399;SDS011;72039;48.812;8.198;2024-03-23T15:12:26;10.00;;;4.72;;
82399;SDS011;72039;48.812;8.198;2024-03-23T15:14:52;4.47;;;1.20;;
82399;SDS011;72039;48.812;8.198;2024-03-23T15:17:17;3.13;;;1.17;;
82399;SDS011;72039;48.812;8.198;2024-03-23T15:19:43;11.60;;;1.45;;
82399;SDS011;72039;48.812;8.198;2024-03-23T15:22:08;4.95;;;0.90;;
82399;SDS011;72039;48.812;8.198;2024-03-23T15:24:36;1.83;;;0.90;;
82399;SDS011;72039;48.812;8.198;2024-03-23T15:27:07;1.77;;;0.70;;
82399;SDS011;72039;48.812;8.198;2024-03-23T15:29:36;2.20;;;1.15;;
82399;SDS011;72039;48.812;8.198;2024-03-23T15:32:01;7.68;;;1.60;;
82399;SDS011;72039;48.812;8.198;2024-03-23T15:34:28;1.95;;;0.70;;
82399;SDS011;72039;48.812;8.198;2024-03-23T15:36:54;1.52;;;0.90;;
82399;SDS011;72039;48.812;8.198;2024-03-23T15:39:20;1.08;;;0.73;;
82399;SDS011;72039;48.812;8.198;2024-03-23T15:41:47;1.88;;;1.10;;
82399;SDS011;72039;48.812;8.198;2024-03-23T15:44:13;2.67;;;0.90;;
82399;SDS011;72039;48.812;8.198;2024-03-23T15:46:39;3.13;;;1.50;;
82399;SDS011;72039;48.812;8.198;2024-03-23T15:49:05;10.10;;;4.45;;
82399;SDS011;72039;48.812;8.198;2024-03-23T15:51:31;4.40;;;1.55;;
82399;SDS011;72039;48.812;8.198;2024-03-23T15:53:59;6.85;;;2.90;;
82399;SDS011;72039;48.812;8.198;2024-03-23T15:56:25;3.80;;;1.70;;
82399;SDS011;72039;48.812;8.198;2024-03-23T15:58:50;1.48;;;0.90;;
82399;SDS011;72039;48.812;8.198;2024-03-23T16:01:16;1.92;;;0.90;;
82399;SDS011;72039;48.812;8.198;2024-03-23T16:03:41;3.42;;;0.77;;
82399;SDS011;72039;48.812;8.198;2024-03-23T16:06:07;1.80;;;1.00;;
82399;SDS011;72039;48.812;8.198;2024-03-23T16:08:33;1.65;;;0.80;;
82399;SDS011;72039;48.812;8.198;2024-03-23T16:10:59;1.35;;;0.70;;
82399;SDS011;72039;48.812;8.198;2024-03-23T16:13:26;2.30;;;1.30;;
82399;SDS011;72039;48.812;8.198;2024-03-23T16:15:56;1.15;;;0.73;;
82399;SDS011;72039;48.812;8.198;2024-03-23T16:18:23;2.85;;;0.82;;
82399;SDS011;72039;48.812;8.198;2024-03-23T16:20:59;1.80;;;1.08;;
82399;SDS011;72039;48.812;8.198;2024-03-23T16:23:26;2.92;;;1.60;;
82399;SDS011;72039;48.812;8.198;2024-03-23T16:25:55;4.10;;;1.60;;
82399;SDS011;72039;48.812;8.198;2024-03-23T16:28:23;3.45;;;1.10;;
82399;SDS011;72039;48.812;8.198;2024-03-23T16:30:59;3.38;;;1.00;;
82399;SDS011;72039;48.812;8.198;2024-03-23T16:33:31;4.50;;;1.00;;
82399;SDS011;72039;48.812;8.198;2024-03-23T16:36:01;2.15;;;1.20;;
82399;SDS011;72039;48.812;8.198;2024-03-23T16:38:32;2.00;;;1.00;;
82399;SDS011;72039;48.812;8.198;2024-03-23T16:41:02;2.13;;;1.30;;
82399;SDS011;72039;48.812;8.198;2024-03-23T16:43:29;3.08;;;1.30;;
82399;SDS011;72039;48.812;8.198;2024-03-23T16:45:59;3.55;;;0.90;;
82399;SDS011;72039;48.812;8.198;2024-03-23T16:48:30;4.43;;;1.40;;
82399;SDS011;72039;48.812;8.198;2024-03-23T16:50:59;6.05;;;1.13;;
82399;SDS011;72039;48.812;8.198;2024-03-23T16:53:29;3.35;;;1.13;;
82399;SDS011;72039;48.812;8.198;2024-03-23T16:56:00;3.65;;;1.13;;
82399;SDS011;72039;48.812;8.198;2024-03-23T17:00:58;1.85;;;1.20;;
82399;SDS011;72039;48.812;8.198;2024-03-23T17:03:38;3.58;;;1.10;;
82399;SDS011;72039;48.812;8.198;2024-03-23T17:06:06;3.25;;;1.60;;
82399;SDS011;72039;48.812;8.198;2024-03-23T17:08:32;2.40;;;1.50;;
82399;SDS011;72039;48.812;8.198;2024-03-23T17:11:03;2.08;;;1.40;;
82399;SDS011;72039;48.812;8.198;2024-03-23T17:13:30;4.72;;;1.45;;
82399;SDS011;72039;48.812;8.198;2024-03-23T17:15:57;4.80;;;1.23;;
82399;SDS011;72039;48.812;8.198;2024-03-23T17:18:22;6.57;;;3.00;;
82399;SDS011;72039;48.812;8.198;2024-03-23T17:20:48;3.95;;;1.35;;
82399;SDS011;72039;48.812;8.198;2024-03-23T17:23:22;2.42;;;1.73;;
82399;SDS011;72039;48.812;8.198;2024-03-23T17:25:48;4.55;;;1.70;;
82399;SDS011;72039;48.812;8.198;2024-03-23T17:28:15;4.50;;;0.90;;
82399;SDS011;72039;48.812;8.198;2024-03-23T17:30:42;1.58;;;1.20;;
82399;SDS011;72039;48.812;8.198;2024-03-23T17:33:09;3.72;;;1.50;;
82399;SDS011;72039;48.812;8.198;2024-03-23T17:35:36;2.45;;;1.40;;
82399;SDS011;72039;48.812;8.198;2024-03-23T17:38:04;3.33;;;1.20;;
82399;SDS011;72039;48.812;8.198;2024-03-23T17:40:29;2.80;;;1.67;;
82399;SDS011;72039;48.812;8.198;2024-03-23T17:42:58;5.18;;;2.30;;
82399;SDS011;72039;48.812;8.198;2024-03-23T17:45:23;3.50;;;1.50;;
82399;SDS011;72039;48.812;8.198;2024-03-23T17:47:49;8.05;;;1.67;;
82399;SDS011;72039;48.812;8.198;2024-03-23T17:50:18;3.33;;;1.63;;
82399;SDS011;72039;48.812;8.198;2024-03-23T17:52:45;4.07;;;1.55;;
82399;SDS011;72039;48.812;8.198;2024-03-23T17:55:14;5.97;;;1.90;;
82399;SDS011;72039;48.812;8.198;2024-03-23T17:57:39;4.47;;;1.40;;
82399;SDS011;72039;48.812;8.198;2024-03-23T18:00:06;5.60;;;1.40;;
82399;SDS011;72039;48.812;8.198;2024-03-23T18:02:33;1.42;;;1.17;;
82399;SDS011;72039;48.812;8.198;2024-03-23T18:05:00;2.47;;;1.27;;
82399;SDS011;72039;48.812;8.198;2024-03-23T18:07:32;6.47;;;1.67;;
82399;SDS011;72039;48.812;8.198;2024-03-23T18:09:58;2.97;;;1.75;;
82399;SDS011;72039;48.812;8.198;2024-03-23T18:12:24;3.65;;;1.50;;
82399;SDS011;72039;48.812;8.198;2024-03-23T18:14:51;7.05;;;2.15;;
82399;SDS011;72039;48.812;8.198;2024-03-23T18:17:19;5.28;;;2.17;;
82399;SDS011;72039;48.812;8.198;2024-03-23T18:19:44;3.35;;;1.67;;
82399;SDS011;72039;48.812;8.198;2024-03-23T18:22:10;7.60;;;3.85;;
82399;SDS011;72039;48.812;8.198;2024-03-23T18:24:35;6.05;;;2.83;;
82399;SDS011;72039;48.812;8.198;2024-03-23T18:27:01;4.85;;;1.90;;
82399;SDS011;72039;48.812;8.198;2024-03-23T18:29:29;5.28;;;1.17;;
82399;SDS011;72039;48.812;8.198;2024-03-23T18:31:54;2.00;;;1.10;;
82399;SDS011;72039;48.812;8.198;2024-03-23T18:34:20;4.68;;;1.40;;
82399;SDS011;72039;48.812;8.198;2024-03-23T18:36:45;3.60;;;1.70;;
82399;SDS011;72039;48.812;8.198;2024-03-23T18:39:12;2.88;;;1.40;;
82399;SDS011;72039;48.812;8.198;2024-03-23T18:41:38;1.80;;;1.00;;
82399;SDS011;72039;48.812;8.198;2024-03-23T18:44:06;3.22;;;1.20;;
82399;SDS011;72039;48.812;8.198;2024-03-23T18:46:31;1.25;;;0.95;;
82399;SDS011;72039;48.812;8.198;2024-03-23T18:48:57;4.03;;;1.30;;
82399;SDS011;72039;48.812;8.198;2024-03-23T18:51:26;3.25;;;1.13;;
82399;SDS011;72039;48.812;8.198;2024-03-23T18:53:53;1.50;;;0.98;;
82399;SDS011;72039;48.812;8.198;2024-03-23T18:56:20;1.00;;;0.82;;
82399;SDS011;72039;48.812;8.198;2024-03-23T18:58:46;2.58;;;1.30;;
82399;SDS011;72039;48.812;8.198;2024-03-23T19:01:14;1.70;;;1.00;;
82399;SDS011;72039;48.812;8.198;2024-03-23T19:03:42;2.08;;;1.25;;
82399;SDS011;72039;48.812;8.198;2024-03-23T19:06:11;5.05;;;1.20;;
82399;SDS011;72039;48.812;8.198;2024-03-23T19:08:36;1.83;;;1.13;;
82399;SDS011;72039;48.812;8.198;2024-03-23T19:11:05;4.63;;;1.95;;
82399;SDS011;72039;48.812;8.198;2024-03-23T19:13:31;2.58;;;1.40;;
82399;SDS011;72039;48.812;8.198;2024-03-23T19:15:59;4.07;;;2.15;;
82399;SDS011;72039;48.812;8.198;2024-03-23T19:18:25;4.18;;;2.38;;
82399;SDS011;72039;48.812;8.198;2024-03-23T19:20:56;7.45;;;2.28;;
82399;SDS011;72039;48.812;8.198;2024-03-23T19:23:27;2.15;;;1.30;;
82399;SDS011;72039;48.812;8.198;2024-03-23T19:28:23;0.85;;;0.85;;
82399;SDS011;72039;48.812;8.198;2024-03-23T19:30:51;3.40;;;0.88;;
82399;SDS011;72039;48.812;8.198;2024-03-23T19:33:17;2.25;;;1.13;;
82399;SDS011;72039;48.812;8.198;2024-03-23T19:35:52;2.13;;;1.25;;
82399;SDS011;72039;48.812;8.198;2024-03-23T19:38:19;3.88;;;1.55;;
82399;SDS011;72039;48.812;8.198;2024-03-23T19:40:54;5.00;;;1.75;;
82399;SDS011;72039;48.812;8.198;2024-03-23T19:43:32;4.60;;;1.70;;
82399;SDS011;72039;48.812;8.198;2024-03-23T19:46:01;5.22;;;1.40;;
82399;SDS011;72039;48.812;8.198;2024-03-23T19:48:27;4.78;;;1.70;;
82399;SDS011;72039;48.812;8.198;2024-03-23T19:50:56;3.53;;;1.40;;
82399;SDS011;72039;48.812;8.198;2024-03-23T19:56:01;3.42;;;1.30;;
82399;SDS011;72039;48.812;8.198;2024-03-23T19:58:35;3.95;;;1.58;;
82399;SDS011;72039;48.812;8.198;2024-03-23T20:01:20;3.83;;;1.10;;
82399;SDS011;72039;48.812;8.198;2024-03-23T20:03:48;2.53;;;1.40;;
82399;SDS011;72039;48.812;8.198;2024-03-23T20:06:18;4.03;;;1.70;;
82399;SDS011;72039;48.812;8.198;2024-03-23T20:08:50;1.58;;;1.23;;
82399;SDS011;72039;48.812;8.198;2024-03-23T20:11:17;2.15;;;1.23;;
82399;SDS011;72039;48.812;8.198;2024-03-23T20:13:43;3.90;;;1.02;;
82399;SDS011;72039;48.812;8.198;2024-03-23T20:16:11;6.97;;;2.00;;
82399;SDS011;72039;48.812;8.198;2024-03-23T20:18:36;1.88;;;1.27;;
82399;SDS011;72039;48.812;8.198;2024-03-23T20:21:02;2.40;;;1.10;;
82399;SDS011;72039;48.812;8.198;2024-03-23T20:23:29;1.40;;;0.80;;
82399;SDS011;72039;48.812;8.198;2024-03-23T20:25:58;4.35;;;1.13;;
82399;SDS011;72039;48.812;8.198;2024-03-23T20:28:26;1.35;;;0.90;;